Time;durP1;ratioP1;P1;durP2;ratioP2;P2;SDS_P1;SDS_P2;PMS_P1;PMS_P2;Temp;Humidity;BMP_temperature;BMP_pressure;BME280_temperature;BME280_humidity;BME280_pressure;Samples;Min_cycle;Max_cycle;Signal;HPM_P1;HPM_P2
2020/12/15 00:01:12;;;;;;;10.33;4.10;;;6.10;71.20;;;;;;5009922;28;20132;-84
2020/12/15 00:03:37;;;;;;;6.87;4.27;;;6.20;71.10;;;;;;5006262;28;20087;-84
2020/12/15 00:06:03;;;;;;;9.77;5.87;;;6.10;71.00;;;;;;5028929;28;20033;-84
2020/12/15 00:08:29;;;;;;;11.93;6.23;;;6.10;71.00;;;;;;5014035;28;20033;-84
2020/12/15 00:10:55;;;;;;;8.20;5.60;;;6.10;71.10;;;;;;5007145;28;20534;-84
2020/12/15 00:13:20;;;;;;;12.43;5.30;;;6.10;71.10;;;;;;4998111;28;20029;-84
2020/12/15 00:15:46;;;;;;;7.10;3.80;;;6.10;71.20;;;;;;5007342;28;20025;-84
2020/12/15 00:18:12;;;;;;;5.10;3.00;;;6.10;71.20;;;;;;5013478;28;20068;-84
2020/12/15 00:20:41;;;;;;;4.80;3.10;;;6.10;70.90;;;;;;4998090;28;20034;-83
2020/12/15 00:23:08;;;;;;;5.60;3.20;;;6.10;71.30;;;;;;5007466;28;20052;-83
2020/12/15 00:25:34;;;;;;;4.97;2.70;;;6.00;71.20;;;;;;5006616;28;20769;-83
2020/12/15 00:28:00;;;;;;;6.20;3.27;;;6.00;71.30;;;;;;5001930;28;20041;-83
2020/12/15 00:30:25;;;;;;;6.27;3.27;;;6.00;71.30;;;;;;5010695;28;20033;-84
2020/12/15 00:32:52;;;;;;;6.57;3.57;;;6.10;71.20;;;;;;5025687;28;20062;-84
2020/12/15 00:35:18;;;;;;;6.60;4.00;;;6.10;71.00;;;;;;5009198;28;20120;-83
2020/12/15 00:37:43;;;;;;;4.67;2.80;;;6.00;71.00;;;;;;5007603;28;20525;-84
2020/12/15 00:40:09;;;;;;;5.07;2.80;;;6.00;71.30;;;;;;5010095;28;20034;-84
2020/12/15 00:42:35;;;;;;;8.87;2.57;;;6.10;71.40;;;;;;5029027;28;20041;-84
2020/12/15 00:45:00;;;;;;;4.93;2.73;;;6.00;71.20;;;;;;5026458;28;20125;-84
2020/12/15 00:47:26;;;;;;;4.40;2.30;;;6.00;71.50;;;;;;5030498;28;20037;-84
2020/12/15 00:49:52;;;;;;;4.63;2.40;;;6.00;71.40;;;;;;5028684;28;20033;-84
2020/12/15 00:52:17;;;;;;;6.40;3.23;;;6.00;71.50;;;;;;5029857;28;20033;-84
2020/12/15 00:54:43;;;;;;;9.13;3.20;;;5.90;71.40;;;;;;5028064;28;20025;-84
2020/12/15 00:57:09;;;;;;;7.87;3.57;;;6.00;71.80;;;;;;5018541;28;20042;-84
2020/12/15 00:59:35;;;;;;;11.40;5.77;;;6.00;71.50;;;;;;5011948;28;20484;-83
2020/12/15 01:02:02;;;;;;;13.47;7.13;;;6.00;71.40;;;;;;5021977;28;20121;-83
2020/12/15 01:04:27;;;;;;;10.43;6.73;;;6.00;71.50;;;;;;5029925;28;20030;-83
2020/12/15 01:06:54;;;;;;;11.97;6.30;;;6.00;71.40;;;;;;5029314;28;20376;-83
2020/12/15 01:09:19;;;;;;;10.13;6.40;;;6.00;71.30;;;;;;5024584;28;20057;-83
2020/12/15 01:11:45;;;;;;;12.90;7.30;;;6.00;71.40;;;;;;5015128;28;20503;-83
2020/12/15 01:14:11;;;;;;;11.40;6.33;;;6.00;71.40;;;;;;5024174;28;20058;-83
2020/12/15 01:16:36;;;;;;;9.57;5.57;;;6.00;71.40;;;;;;5031140;28;20045;-83
2020/12/15 01:19:02;;;;;;;7.97;5.03;;;6.00;71.40;;;;;;5034982;28;20025;-83
2020/12/15 01:21:31;;;;;;;7.80;5.13;;;6.00;71.50;;;;;;5019610;28;20117;-84
2020/12/15 01:23:57;;;;;;;10.77;5.87;;;6.00;71.40;;;;;;5014036;28;20080;-84
2020/12/15 01:26:23;;;;;;;9.10;5.60;;;6.00;71.40;;;;;;5018171;28;20025;-84
2020/12/15 01:28:50;;;;;;;11.73;6.07;;;5.90;71.30;;;;;;5023311;28;20486;-83
2020/12/15 01:31:23;;;;;;;13.10;6.23;;;6.00;71.60;;;;;;5030795;28;20034;-83
2020/12/15 01:33:49;;;;;;;9.30;6.50;;;6.00;71.50;;;;;;5029432;28;20026;-83
2020/12/15 01:36:15;;;;;;;11.10;5.27;;;6.00;71.40;;;;;;5028085;28;20117;-83
2020/12/15 01:38:42;;;;;;;10.73;5.73;;;5.90;71.30;;;;;;5029254;28;20545;-83
2020/12/15 01:41:07;;;;;;;10.33;6.00;;;5.80;71.30;;;;;;5032005;28;20052;-83
2020/12/15 01:43:34;;;;;;;8.07;5.03;;;5.80;71.40;;;;;;5020966;28;20030;-83
2020/12/15 01:46:00;;;;;;;9.73;4.77;;;5.80;71.50;;;;;;5031982;28;20040;-83
2020/12/15 01:48:26;;;;;;;6.87;4.23;;;5.80;71.70;;;;;;5032167;28;20029;-83
2020/12/15 01:50:51;;;;;;;7.33;3.60;;;5.80;71.80;;;;;;5026066;28;20037;-83
2020/12/15 01:53:17;;;;;;;5.70;3.40;;;5.70;71.90;;;;;;5031361;28;20033;-83
2020/12/15 01:55:44;;;;;;;4.57;2.50;;;5.80;71.90;;;;;;5031678;28;20029;-83
2020/12/15 01:58:11;;;;;;;4.70;2.60;;;5.80;71.80;;;;;;5027719;28;20029;-83
2020/12/15 02:00:36;;;;;;;5.53;2.37;;;5.70;71.80;;;;;;5029625;28;20026;-83
2020/12/15 02:03:02;;;;;;;4.90;2.60;;;5.70;71.90;;;;;;5031283;28;22205;-83
2020/12/15 02:05:29;;;;;;;4.90;2.87;;;5.70;71.90;;;;;;5031611;28;20033;-83
2020/12/15 02:07:55;;;;;;;6.57;2.73;;;5.70;71.70;;;;;;5027257;28;20033;-84
2020/12/15 02:10:22;;;;;;;5.93;3.17;;;5.70;71.80;;;;;;5022302;28;20041;-83
2020/12/15 02:12:49;;;;;;;5.10;2.67;;;5.60;72.50;;;;;;5028516;28;20037;-83
2020/12/15 02:15:15;;;;;;;3.97;2.10;;;5.70;72.20;;;;;;5021595;28;20037;-83
2020/12/15 02:17:41;;;;;;;6.17;2.70;;;5.70;72.10;;;;;;5031215;28;20198;-83
2020/12/15 02:20:08;;;;;;;7.07;3.10;;;5.70;72.30;;;;;;5031676;28;20029;-83
2020/12/15 02:22:35;;;;;;;4.00;2.50;;;5.60;72.30;;;;;;5031981;28;20661;-83
2020/12/15 02:25:03;;;;;;;5.63;2.03;;;5.70;72.30;;;;;;5026196;28;20038;-83
2020/12/15 02:27:29;;;;;;;4.43;2.50;;;5.70;72.10;;;;;;5017376;28;20029;-84
2020/12/15 02:29:55;;;;;;;4.23;2.43;;;5.70;72.00;;;;;;5027382;28;20052;-84
2020/12/15 02:32:21;;;;;;;4.83;3.13;;;5.60;72.20;;;;;;5026328;28;20064;-84
2020/12/15 02:34:46;;;;;;;6.50;2.63;;;5.60;72.10;;;;;;5028239;28;20044;-84
2020/12/15 02:37:13;;;;;;;3.87;2.83;;;5.50;72.30;;;;;;5018047;28;20037;-84
2020/12/15 02:39:40;;;;;;;4.77;2.80;;;5.50;72.30;;;;;;5031812;28;20063;-84
2020/12/15 02:42:06;;;;;;;5.60;3.03;;;5.50;72.30;;;;;;5029122;28;20049;-84
2020/12/15 02:44:32;;;;;;;8.70;4.63;;;5.50;72.20;;;;;;5028628;28;20034;-84
2020/12/15 02:46:57;;;;;;;4.97;2.37;;;5.50;72.50;;;;;;5023191;28;20502;-84
2020/12/15 02:49:23;;;;;;;2.37;1.50;;;5.50;72.80;;;;;;5032626;28;20037;-84
2020/12/15 02:51:49;;;;;;;5.27;2.53;;;5.50;72.70;;;;;;5030295;28;20053;-84
2020/12/15 02:54:19;;;;;;;7.10;3.60;;;5.50;72.60;;;;;;5032443;28;20111;-84
2020/12/15 02:56:45;;;;;;;6.37;3.60;;;5.40;72.70;;;;;;5032972;28;20495;-84
2020/12/15 02:59:11;;;;;;;7.27;3.57;;;5.50;72.90;;;;;;5032104;28;20451;-84
2020/12/15 03:01:44;;;;;;;6.13;3.40;;;5.50;72.80;;;;;;5024689;28;20044;-84
2020/12/15 03:04:10;;;;;;;8.05;5.05;;;5.50;72.70;;;;;;5031239;28;20029;-84
2020/12/15 03:06:37;;;;;;;5.60;3.37;;;5.50;72.80;;;;;;5027519;28;20029;-84
2020/12/15 03:09:09;;;;;;;7.30;3.87;;;5.50;72.80;;;;;;5014967;28;20033;-84
2020/12/15 03:11:35;;;;;;;;;;;5.50;72.80;;;;;;5031532;28;20035;-84
2020/12/15 03:14:02;;;;;;;6.90;3.27;;;5.50;72.40;;;;;;5027108;28;19921;-84
2020/12/15 03:16:28;;;;;;;3.17;2.00;;;5.50;72.70;;;;;;5027931;28;20185;-84
2020/12/15 03:18:53;;;;;;;5.13;2.50;;;5.50;72.70;;;;;;5023370;28;20220;-84
2020/12/15 03:21:20;;;;;;;2.47;1.97;;;5.50;72.90;;;;;;5019427;28;20048;-84
2020/12/15 03:23:47;;;;;;;4.07;1.87;;;5.40;73.10;;;;;;5024221;28;20026;-84
2020/12/15 03:26:12;;;;;;;1.57;1.17;;;5.50;73.20;;;;;;5031087;28;20396;-84
2020/12/15 03:28:38;;;;;;;5.33;1.90;;;5.60;73.20;;;;;;5025934;28;20080;-84
2020/12/15 03:31:04;;;;;;;3.27;2.23;;;5.60;73.10;;;;;;5030016;28;20108;-84
2020/12/15 03:33:29;;;;;;;4.33;3.10;;;5.60;73.10;;;;;;5027368;28;20022;-84
2020/12/15 03:35:55;;;;;;;4.73;2.77;;;5.60;73.00;;;;;;5015056;28;20041;-84
2020/12/15 03:38:21;;;;;;;4.17;2.17;;;5.60;73.40;;;;;;5026919;28;20059;-84
2020/12/15 03:40:47;;;;;;;7.57;3.60;;;5.60;72.90;;;;;;5019923;28;20121;-84
2020/12/15 03:43:12;;;;;;;5.23;3.00;;;5.60;72.90;;;;;;5019706;28;20079;-83
2020/12/15 03:45:43;;;;;;;9.47;3.57;;;5.60;72.80;;;;;;5020347;28;20393;-83
2020/12/15 03:48:12;;;;;;;10.07;3.60;;;5.60;72.80;;;;;;5020857;28;20429;-83
2020/12/15 03:50:38;;;;;;;5.60;3.23;;;5.60;72.70;;;;;;5010824;28;20626;-83
2020/12/15 03:53:04;;;;;;;6.17;3.73;;;5.60;72.60;;;;;;5014086;28;20112;-83
2020/12/15 03:55:30;;;;;;;5.60;2.53;;;5.60;73.00;;;;;;5010668;28;20021;-83
2020/12/15 03:57:55;;;;;;;8.30;2.63;;;5.60;73.00;;;;;;5017158;28;20025;-84
2020/12/15 04:00:21;;;;;;;2.80;2.07;;;5.60;73.30;;;;;;5019689;28;20029;-84
2020/12/15 04:02:48;;;;;;;3.53;2.43;;;5.60;73.30;;;;;;5028338;28;20021;-84
2020/12/15 04:05:13;;;;;;;3.97;1.77;;;5.60;73.30;;;;;;5029607;28;20029;-84
2020/12/15 04:07:43;;;;;;;3.73;1.90;;;5.60;73.20;;;;;;5029888;28;20035;-84
2020/12/15 04:10:10;;;;;;;3.43;1.97;;;5.50;73.30;;;;;;5030323;28;20029;-83
2020/12/15 04:12:36;;;;;;;5.10;2.03;;;5.60;73.50;;;;;;5018013;28;20441;-83
2020/12/15 04:15:04;;;;;;;4.37;2.43;;;5.60;73.70;;;;;;5029673;28;20025;-84
2020/12/15 04:17:30;;;;;;;4.83;2.63;;;5.60;73.60;;;;;;5028872;28;20036;-84
2020/12/15 04:19:55;;;;;;;7.77;3.03;;;5.60;73.60;;;;;;5031676;28;20096;-83
2020/12/15 04:22:22;;;;;;;13.13;7.07;;;5.60;73.60;;;;;;5027217;28;20045;-83
2020/12/15 04:24:48;;;;;;;12.20;5.70;;;5.70;73.60;;;;;;5024079;28;20052;-84
2020/12/15 04:27:13;;;;;;;10.90;4.53;;;5.70;73.50;;;;;;5028706;28;20045;-83
2020/12/15 04:29:39;;;;;;;10.60;4.47;;;5.70;73.40;;;;;;5019094;28;20018;-84
2020/12/15 04:32:05;;;;;;;7.63;4.33;;;5.70;73.40;;;;;;5011712;28;20036;-83
2020/12/15 04:34:31;;;;;;;10.37;4.60;;;5.70;73.30;;;;;;5021580;28;20022;-84
2020/12/15 04:36:57;;;;;;;10.00;4.60;;;5.70;73.40;;;;;;5019587;28;20034;-83
2020/12/15 04:39:24;;;;;;;7.07;3.80;;;5.60;73.60;;;;;;5016334;28;20028;-83
2020/12/15 04:41:50;;;;;;;6.60;3.97;;;5.70;73.60;;;;;;5030249;28;20080;-83
2020/12/15 04:44:16;;;;;;;13.30;6.73;;;5.70;73.60;;;;;;5029695;28;20085;-83
2020/12/15 04:47:15;;;;;;;29.63;19.53;;;5.70;73.60;;;;;;5027602;28;20080;-83
2020/12/15 04:49:50;;;;;;;44.80;26.57;;;5.80;73.80;;;;;;5026680;28;20096;-83
2020/12/15 04:52:22;;;;;;;22.87;13.60;;;5.80;73.60;;;;;;5032471;28;20079;-84
2020/12/15 04:54:52;;;;;;;23.10;9.93;;;5.80;73.50;;;;;;5030095;28;20080;-83
2020/12/15 04:57:22;;;;;;;19.97;8.40;;;5.80;73.50;;;;;;5029245;28;20484;-83
2020/12/15 04:59:51;;;;;;;13.17;7.00;;;5.90;73.60;;;;;;5024042;28;20014;-83
2020/12/15 05:02:18;;;;;;;14.03;6.40;;;5.90;73.50;;;;;;5030928;28;20538;-84
2020/12/15 05:04:44;;;;;;;16.83;9.37;;;5.90;73.60;;;;;;5033266;28;20032;-83
2020/12/15 05:07:11;;;;;;;25.37;11.77;;;5.90;73.50;;;;;;5025856;28;20072;-84
2020/12/15 05:09:37;;;;;;;21.57;11.03;;;5.90;73.50;;;;;;5024156;28;20549;-83
2020/12/15 05:12:05;;;;;;;21.10;11.47;;;5.90;73.60;;;;;;5029438;28;20068;-83
2020/12/15 05:14:31;;;;;;;20.43;11.23;;;5.90;73.60;;;;;;5014071;28;20025;-84
2020/12/15 05:16:56;;;;;;;11.07;6.10;;;5.90;73.60;;;;;;5023267;28;20499;-84
2020/12/15 05:19:22;;;;;;;9.70;5.87;;;5.90;73.60;;;;;;5018390;28;20037;-84
2020/12/15 05:21:58;;;;;;;10.83;6.20;;;5.90;73.40;;;;;;5033120;28;20559;-83
2020/12/15 05:24:30;;;;;;;9.77;6.07;;;5.90;73.40;;;;;;5032624;28;20388;-83
2020/12/15 05:27:01;;;;;;;9.63;5.68;;;5.90;73.40;;;;;;5032925;28;20029;-84
2020/12/15 05:29:27;;;;;;;9.67;6.00;;;5.90;73.30;;;;;;5018957;28;20135;-84
2020/12/15 05:31:54;;;;;;;10.73;6.17;;;5.90;73.20;;;;;;5032072;28;20052;-84
2020/12/15 05:34:24;;;;;;;8.43;6.13;;;5.90;73.30;;;;;;5028161;28;20148;-84
2020/12/15 05:36:55;;;;;;;8.57;5.80;;;5.90;73.20;;;;;;5029860;28;20030;-83
2020/12/15 05:39:22;;;;;;;12.40;6.53;;;5.80;73.20;;;;;;5027176;28;20494;-84
2020/12/15 05:41:58;;;;;;;14.57;8.37;;;5.80;73.30;;;;;;5029680;28;20381;-83
2020/12/15 05:44:28;;;;;;;14.50;8.03;;;5.80;73.50;;;;;;5020195;28;20121;-83
2020/12/15 05:47:00;;;;;;;14.40;8.03;;;5.90;73.70;;;;;;5016518;28;20099;-83
2020/12/15 05:49:27;;;;;;;13.10;7.35;;;6.00;73.60;;;;;;5024751;28;20022;-83
2020/12/15 05:51:54;;;;;;;15.23;8.77;;;6.00;73.40;;;;;;5027410;28;20041;-84
2020/12/15 05:54:19;;;;;;;18.63;8.07;;;6.00;73.30;;;;;;5032522;28;20099;-84
2020/12/15 05:56:45;;;;;;;14.20;8.20;;;6.00;73.20;;;;;;5032353;28;20026;-83
2020/12/15 05:59:18;;;;;;;12.03;7.10;;;6.00;73.30;;;;;;5032323;28;20059;-83
2020/12/15 06:01:49;;;;;;;14.98;7.82;;;6.00;73.30;;;;;;5030298;28;20414;-83
2020/12/15 06:04:15;;;;;;;11.30;7.13;;;6.00;73.30;;;;;;5032702;28;20444;-84
2020/12/15 06:06:42;;;;;;;13.50;8.17;;;5.90;73.20;;;;;;5031515;28;20056;-82
2020/12/15 06:09:09;;;;;;;10.87;7.30;;;5.90;73.20;;;;;;5026565;28;20447;-83
2020/12/15 06:11:39;;;;;;;13.17;7.67;;;6.00;73.10;;;;;;5031991;28;20025;-83
2020/12/15 06:14:05;;;;;;;12.47;7.13;;;6.00;73.10;;;;;;5032288;28;20079;-82
2020/12/15 06:16:31;;;;;;;14.30;8.23;;;6.00;73.10;;;;;;5031896;28;20029;-83
2020/12/15 06:18:57;;;;;;;13.10;7.00;;;6.00;73.00;;;;;;5028338;28;20041;-84
2020/12/15 06:21:23;;;;;;;11.47;7.00;;;6.00;72.90;;;;;;5014717;28;20022;-83
2020/12/15 06:24:03;;;;;;;12.37;7.70;;;6.00;73.40;;;;;;5029624;28;20037;-83
2020/12/15 06:26:32;;;;;;;11.43;7.73;;;6.00;72.90;;;;;;5018665;28;20052;-84
2020/12/15 06:29:04;;;;;;;10.70;7.20;;;6.00;72.80;;;;;;5021994;28;20049;-85
2020/12/15 06:31:31;;;;;;;11.98;7.78;;;6.00;72.80;;;;;;5017027;28;20026;-84
2020/12/15 06:33:59;;;;;;;10.83;7.53;;;6.00;72.80;;;;;;5025618;28;20033;-84
2020/12/15 06:36:26;;;;;;;11.20;7.17;;;5.90;72.70;;;;;;5030877;28;20435;-84
2020/12/15 06:38:52;;;;;;;19.63;10.00;;;5.90;72.70;;;;;;5033055;28;20075;-84
2020/12/15 06:41:22;;;;;;;16.50;9.57;;;5.80;73.00;;;;;;5031250;28;20496;-84
2020/12/15 06:43:49;;;;;;;19.20;11.53;;;5.90;73.60;;;;;;5015684;28;20030;-84
2020/12/15 06:46:14;;;;;;;26.73;15.73;;;5.90;73.10;;;;;;5019848;28;20053;-84
2020/12/15 06:48:45;;;;;;;28.20;17.73;;;5.90;73.00;;;;;;5023595;28;20053;-84
2020/12/15 06:51:12;;;;;;;26.93;16.10;;;5.90;73.10;;;;;;5031593;28;20041;-84
2020/12/15 06:53:39;;;;;;;23.73;14.83;;;5.90;73.10;;;;;;5031370;28;20144;-84
2020/12/15 06:56:05;;;;;;;23.63;14.70;;;5.90;73.20;;;;;;5030702;28;20018;-84
2020/12/15 06:58:32;;;;;;;22.07;14.27;;;5.90;73.20;;;;;;5018757;28;20021;-84
2020/12/15 07:00:58;;;;;;;28.40;15.53;;;6.00;73.10;;;;;;5027414;28;20551;-83
2020/12/15 07:03:43;;;;;;;30.00;16.37;;;5.90;73.20;;;;;;5030971;28;20404;-83
2020/12/15 07:06:13;;;;;;;22.83;15.10;;;5.90;73.20;;;;;;5026653;28;20040;-83
2020/12/15 07:08:39;;;;;;;20.13;11.97;;;5.90;73.20;;;;;;5029601;28;20038;-83
2020/12/15 07:11:04;;;;;;;28.27;15.77;;;5.90;73.30;;;;;;5023808;28;20043;-83
2020/12/15 07:13:30;;;;;;;21.70;14.00;;;5.90;73.20;;;;;;5022552;28;20038;-83
2020/12/15 07:15:56;;;;;;;19.47;12.63;;;5.90;73.40;;;;;;5022028;28;20116;-83
2020/12/15 07:18:21;;;;;;;25.43;12.73;;;5.80;73.50;;;;;;5029928;28;20084;-83
2020/12/15 07:20:48;;;;;;;21.87;12.30;;;5.80;73.40;;;;;;5030689;28;20026;-83
2020/12/15 07:23:18;;;;;;;26.37;14.93;;;5.90;73.60;;;;;;5039693;28;20536;-83
2020/12/15 07:25:47;;;;;;;34.70;19.50;;;5.90;73.40;;;;;;5017888;28;20109;-83
2020/12/15 07:28:12;;;;;;;36.90;21.53;;;5.90;73.50;;;;;;5029747;28;20099;-83
2020/12/15 07:30:39;;;;;;;33.80;20.10;;;6.00;73.60;;;;;;5020082;28;20809;-83
2020/12/15 07:33:05;;;;;;;33.23;21.03;;;6.00;74.00;;;;;;5024952;28;20033;-83
2020/12/15 07:35:31;;;;;;;41.40;22.93;;;6.00;73.50;;;;;;5019635;28;20186;-83
2020/12/15 07:37:58;;;;;;;58.27;31.33;;;5.90;73.50;;;;;;5023674;28;20022;-83
2020/12/15 07:40:28;;;;;;;34.60;19.13;;;5.90;73.60;;;;;;5030897;28;20018;-83
2020/12/15 07:43:02;;;;;;;30.97;17.50;;;6.00;74.00;;;;;;5024655;28;20124;-83
2020/12/15 07:45:31;;;;;;;26.40;17.17;;;6.10;74.00;;;;;;5031762;28;20100;-83
2020/12/15 07:47:57;;;;;;;33.27;20.23;;;6.10;73.60;;;;;;5033551;28;20434;-83
2020/12/15 07:50:29;;;;;;;27.97;18.33;;;6.10;73.60;;;;;;5029782;28;20036;-83
2020/12/15 07:52:55;;;;;;;32.27;19.40;;;6.10;73.70;;;;;;5030276;28;20029;-83
2020/12/15 07:55:23;;;;;;;25.87;15.93;;;6.10;73.60;;;;;;5045383;28;20029;-83
2020/12/15 07:57:49;;;;;;;29.80;15.80;;;6.10;74.30;;;;;;5030473;28;20029;-83
2020/12/15 08:00:21;;;;;;;30.00;16.20;;;6.10;73.70;;;;;;5039142;28;20555;-83
2020/12/15 08:02:48;;;;;;;34.40;16.23;;;6.10;74.50;;;;;;5030898;28;20021;-82
2020/12/15 08:05:20;;;;;;;28.83;14.57;;;6.10;74.00;;;;;;5021845;28;20028;-83
2020/12/15 08:07:50;;;;;;;30.98;14.43;;;6.20;74.20;;;;;;5026515;28;20017;-83
2020/12/15 08:10:42;;;;;;;26.87;15.30;;;6.30;74.50;;;;;;5033554;28;20029;-83
2020/12/15 08:13:08;;;;;;;25.57;12.87;;;6.40;74.00;;;;;;5029872;28;20112;-83
2020/12/15 08:15:41;;;;;;;25.30;12.87;;;6.40;73.70;;;;;;5033087;28;20120;-83
2020/12/15 08:18:09;;;;;;;12.80;6.83;;;6.50;73.90;;;;;;5016712;28;20029;-83
2020/12/15 08:20:35;;;;;;;12.93;6.37;;;6.50;73.70;;;;;;5023169;28;20056;-83
2020/12/15 08:23:13;;;;;;;14.77;7.70;;;6.50;73.80;;;;;;5029204;28;20522;-83
2020/12/15 08:25:44;;;;;;;11.80;6.77;;;6.60;73.80;;;;;;5033210;28;20025;-83
2020/12/15 08:28:21;;;;;;;11.27;7.30;;;6.60;73.60;;;;;;5048707;28;20060;-83
2020/12/15 08:30:55;;;;;;;14.27;7.73;;;6.60;73.50;;;;;;5033004;28;20485;-83
2020/12/15 08:33:29;;;;;;;14.40;7.07;;;6.60;73.50;;;;;;5002384;28;20396;-83
2020/12/15 08:35:59;;;;;;;13.13;8.13;;;6.60;74.00;;;;;;5035259;28;20025;-83
2020/12/15 08:38:26;;;;;;;20.63;8.13;;;6.60;73.30;;;;;;5050381;28;20159;-83
2020/12/15 08:40:57;;;;;;;20.13;9.93;;;6.60;73.10;;;;;;5030101;28;20637;-83
2020/12/15 08:43:23;;;;;;;15.37;10.07;;;6.50;72.90;;;;;;5029927;28;20044;-83
2020/12/15 08:45:49;;;;;;;13.33;8.20;;;6.50;73.30;;;;;;5030186;28;20030;-83
2020/12/15 08:48:17;;;;;;;17.73;9.00;;;6.40;73.30;;;;;;5030803;28;20029;-83
2020/12/15 08:50:43;;;;;;;14.87;8.27;;;6.40;73.50;;;;;;5030438;28;20456;-83
2020/12/15 08:53:13;;;;;;;18.13;9.30;;;6.40;73.50;;;;;;5026433;28;20489;-83
2020/12/15 08:55:40;;;;;;;13.13;8.20;;;6.40;73.30;;;;;;5034853;28;20025;-83
2020/12/15 08:58:08;;;;;;;19.80;11.47;;;6.40;73.30;;;;;;5021116;28;20492;-83
2020/12/15 09:00:36;;;;;;;24.73;14.10;;;6.40;73.40;;;;;;5019649;28;20025;-83
2020/12/15 09:03:13;;;;;;;19.57;11.47;;;6.40;73.60;;;;;;5020934;28;20044;-83
2020/12/15 09:06:08;;;;;;;13.93;8.30;;;6.40;73.70;;;;;;5029724;28;20040;-83
2020/12/15 09:08:33;;;;;;;11.50;8.03;;;6.40;73.80;;;;;;5016871;28;20496;-83
2020/12/15 09:11:00;;;;;;;48.83;20.57;;;6.50;73.70;;;;;;5010304;28;20026;-83
2020/12/15 09:13:27;;;;;;;20.10;11.53;;;6.60;73.80;;;;;;5026735;28;20384;-83
2020/12/15 09:15:57;;;;;;;42.20;18.33;;;6.70;73.90;;;;;;5029713;28;20432;-83
2020/12/15 09:18:33;;;;;;;21.47;10.90;;;6.80;73.80;;;;;;5028061;28;20040;-83
2020/12/15 09:21:12;;;;;;;13.90;6.87;;;6.80;73.30;;;;;;5030367;28;20033;-83
2020/12/15 09:23:39;;;;;;;39.87;20.40;;;6.80;73.50;;;;;;5019548;28;20030;-83
2020/12/15 09:26:04;;;;;;;31.33;14.93;;;6.90;73.50;;;;;;5026338;28;20129;-81
2020/12/15 09:28:30;;;;;;;30.73;15.67;;;7.00;73.40;;;;;;5022683;28;20126;-81
2020/12/15 09:30:57;;;;;;;29.03;15.77;;;7.00;73.40;;;;;;5028696;28;20029;-81
2020/12/15 09:33:22;;;;;;;20.30;11.73;;;7.10;73.40;;;;;;5030173;28;20480;-81
2020/12/15 09:35:48;;;;;;;22.60;12.20;;;7.20;73.40;;;;;;5032822;28;20029;-81
2020/12/15 09:38:15;;;;;;;18.23;10.43;;;7.30;73.40;;;;;;5025902;28;20036;-81
2020/12/15 09:40:41;;;;;;;18.83;10.80;;;7.30;73.30;;;;;;5022130;28;22091;-80
2020/12/15 09:43:07;;;;;;;17.07;8.27;;;7.40;73.20;;;;;;5033220;28;20064;-81
2020/12/15 09:45:33;;;;;;;11.87;6.97;;;7.40;73.10;;;;;;5027905;28;20037;-84
2020/12/15 09:47:59;;;;;;;17.27;9.73;;;7.40;73.10;;;;;;5017080;28;20028;-83
2020/12/15 09:50:34;;;;;;;11.77;8.20;;;7.50;73.30;;;;;;5026462;28;20033;-83
2020/12/15 09:53:00;;;;;;;13.53;8.90;;;7.60;73.30;;;;;;5025788;28;20087;-83
2020/12/15 09:55:25;;;;;;;12.97;7.97;;;7.60;73.20;;;;;;5030458;28;20030;-83
2020/12/15 09:57:51;;;;;;;16.23;7.67;;;7.60;73.10;;;;;;5032263;28;20492;-83
2020/12/15 10:00:17;;;;;;;14.47;7.83;;;7.70;73.10;;;;;;5030832;28;20022;-83
2020/12/15 10:02:42;;;;;;;13.63;7.53;;;7.70;73.00;;;;;;5026148;28;20045;-83
2020/12/15 10:05:11;;;;;;;13.00;8.27;;;7.70;72.80;;;;;;5031191;28;20566;-83
2020/12/15 10:07:40;;;;;;;12.53;8.03;;;7.80;72.80;;;;;;5032102;28;20075;-83
2020/12/15 10:10:06;;;;;;;9.77;6.83;;;7.70;72.60;;;;;;5033385;28;20109;-83
2020/12/15 10:12:32;;;;;;;10.73;7.13;;;7.70;72.60;;;;;;5028547;28;20026;-83
2020/12/15 10:14:58;;;;;;;10.80;7.13;;;7.70;72.60;;;;;;5021899;28;20030;-83
2020/12/15 10:17:24;;;;;;;17.87;10.17;;;7.70;72.70;;;;;;5032714;28;20021;-83
2020/12/15 10:19:49;;;;;;;14.73;8.13;;;7.70;72.90;;;;;;5033198;28;20029;-83
2020/12/15 10:22:15;;;;;;;14.60;11.07;;;7.90;73.00;;;;;;5024908;28;20096;-83
2020/12/15 10:24:42;;;;;;;16.27;8.20;;;7.90;72.30;;;;;;5029122;28;20021;-83
2020/12/15 10:27:07;;;;;;;11.40;7.27;;;7.90;72.30;;;;;;5026315;28;20962;-83
2020/12/15 10:29:33;;;;;;;15.90;8.90;;;7.90;72.30;;;;;;5012883;28;20038;-84
2020/12/15 10:31:59;;;;;;;15.47;7.97;;;8.00;72.40;;;;;;5021320;28;20040;-85
2020/12/15 10:34:25;;;;;;;16.47;7.77;;;8.00;72.50;;;;;;5013028;28;20037;-85
2020/12/15 10:36:51;;;;;;;12.00;7.10;;;8.10;72.30;;;;;;5013691;28;20026;-84
2020/12/15 10:39:17;;;;;;;11.83;6.97;;;8.10;72.20;;;;;;5024169;28;20080;-84
2020/12/15 10:41:43;;;;;;;16.47;6.50;;;8.10;72.30;;;;;;5020810;28;20843;-84
2020/12/15 10:44:14;;;;;;;9.80;6.87;;;8.10;72.30;;;;;;5018940;28;20021;-84
2020/12/15 10:46:41;;;;;;;12.03;7.40;;;8.20;72.10;;;;;;5021435;28;20033;-84
2020/12/15 10:49:07;;;;;;;11.67;6.97;;;8.20;72.10;;;;;;5014500;28;20370;-84
2020/12/15 10:51:33;;;;;;;11.80;7.40;;;8.20;72.00;;;;;;5029168;28;20486;-84
2020/12/15 10:53:59;;;;;;;14.40;8.27;;;8.30;71.90;;;;;;5021666;28;20468;-84
2020/12/15 10:56:25;;;;;;;14.73;8.70;;;8.30;71.90;;;;;;5013474;28;20059;-85
2020/12/15 10:58:50;;;;;;;15.03;7.40;;;8.30;71.90;;;;;;5016375;28;20164;-85
2020/12/15 11:01:16;;;;;;;12.30;7.77;;;8.30;71.80;;;;;;5031398;28;20495;-85
2020/12/15 11:03:42;;;;;;;13.57;7.27;;;8.30;71.80;;;;;;5029453;28;20056;-84
2020/12/15 11:06:07;;;;;;;10.33;6.60;;;8.30;71.70;;;;;;5016526;28;20488;-84
2020/12/15 11:08:33;;;;;;;11.60;6.80;;;8.40;71.80;;;;;;5029571;28;20022;-85
2020/12/15 11:10:59;;;;;;;12.40;6.50;;;8.40;71.70;;;;;;5030908;28;20039;-85
2020/12/15 11:13:25;;;;;;;11.70;7.10;;;8.40;71.60;;;;;;5023186;28;20065;-84
2020/12/15 11:15:51;;;;;;;9.93;6.63;;;8.30;71.60;;;;;;5016979;28;20037;-84
2020/12/15 11:18:16;;;;;;;15.33;8.47;;;8.40;71.70;;;;;;5028699;28;20449;-84
2020/12/15 11:20:42;;;;;;;12.53;7.53;;;8.40;71.60;;;;;;5029227;28;20034;-84
2020/12/15 11:23:08;;;;;;;15.50;7.17;;;8.40;71.60;;;;;;5030432;28;20021;-84
2020/12/15 11:25:34;;;;;;;9.87;7.37;;;8.40;71.50;;;;;;5029646;28;20036;-84
2020/12/15 11:28:00;;;;;;;29.13;18.63;;;8.50;71.60;;;;;;5023976;28;20108;-84
2020/12/15 11:30:26;;;;;;;20.60;14.37;;;8.50;71.40;;;;;;5026603;28;20128;-84
2020/12/15 11:32:52;;;;;;;17.40;12.47;;;8.50;71.40;;;;;;5016894;28;20620;-84
2020/12/15 11:35:17;;;;;;;13.63;8.93;;;8.50;71.40;;;;;;5010188;28;20072;-84
2020/12/15 11:37:44;;;;;;;13.03;7.97;;;8.50;71.40;;;;;;5019059;28;20083;-84
2020/12/15 11:40:12;;;;;;;13.33;7.40;;;8.60;71.40;;;;;;5030830;28;20456;-85
2020/12/15 11:42:38;;;;;;;10.27;7.30;;;8.60;71.30;;;;;;5024985;28;20045;-85
2020/12/15 11:45:05;;;;;;;13.07;7.23;;;8.60;71.30;;;;;;5015401;28;20033;-84
2020/12/15 11:47:31;;;;;;;10.07;6.50;;;8.60;71.30;;;;;;5016212;28;20120;-84
2020/12/15 11:49:57;;;;;;;12.90;7.30;;;8.70;71.30;;;;;;5022200;28;20495;-84
2020/12/15 11:52:23;;;;;;;11.33;8.13;;;8.70;71.20;;;;;;5010450;28;20480;-85
2020/12/15 11:54:49;;;;;;;13.40;8.30;;;8.70;71.20;;;;;;5018562;28;20461;-84
2020/12/15 11:57:16;;;;;;;19.33;9.77;;;8.70;71.70;;;;;;5017964;28;20044;-84
2020/12/15 11:59:43;;;;;;;15.97;9.80;;;8.70;71.00;;;;;;5011066;28;20025;-84
2020/12/15 12:02:12;;;;;;;13.63;8.50;;;8.80;71.00;;;;;;5028745;28;20025;-84
2020/12/15 12:04:38;;;;;;;29.73;12.03;;;8.80;70.90;;;;;;5023048;28;20036;-84
2020/12/15 12:07:08;;;;;;;30.77;14.17;;;8.80;70.80;;;;;;5018656;28;20096;-84
2020/12/15 12:09:35;;;;;;;18.63;10.50;;;8.80;70.80;;;;;;5027912;28;20072;-85
2020/12/15 12:12:01;;;;;;;23.37;11.53;;;8.80;70.90;;;;;;5019259;28;20033;-85
2020/12/15 12:14:26;;;;;;;26.60;12.30;;;8.80;70.80;;;;;;5029408;28;20388;-85
2020/12/15 12:16:52;;;;;;;22.13;10.77;;;8.90;70.80;;;;;;5018178;28;20062;-86
2020/12/15 12:19:18;;;;;;;16.93;9.07;;;8.80;70.80;;;;;;5024932;28;20034;-84
2020/12/15 12:21:44;;;;;;;12.83;7.77;;;8.80;70.80;;;;;;5020462;28;20030;-84
2020/12/15 12:24:11;;;;;;;15.73;8.13;;;8.80;70.80;;;;;;5015881;28;20030;-84
2020/12/15 12:26:37;;;;;;;19.07;8.93;;;8.80;70.90;;;;;;5015901;28;20025;-84
2020/12/15 12:29:03;;;;;;;16.40;9.50;;;8.70;70.80;;;;;;5028322;28;20036;-84
2020/12/15 12:31:29;;;;;;;13.33;9.33;;;8.70;70.80;;;;;;5028865;28;20037;-84
2020/12/15 12:33:55;;;;;;;15.33;10.03;;;8.70;70.90;;;;;;5024315;28;20029;-84
2020/12/15 12:36:21;;;;;;;16.93;10.50;;;8.70;70.90;;;;;;5026425;28;20107;-84
2020/12/15 12:38:46;;;;;;;18.13;9.77;;;8.70;71.50;;;;;;5015607;28;20028;-84
2020/12/15 12:41:16;;;;;;;13.47;9.03;;;8.70;71.00;;;;;;5024498;28;20056;-84
2020/12/15 12:43:43;;;;;;;20.87;10.47;;;8.70;71.00;;;;;;5022309;28;20041;-84
2020/12/15 12:46:14;;;;;;;14.13;8.87;;;8.70;71.00;;;;;;5028093;28;20051;-84
2020/12/15 12:48:39;;;;;;;17.17;9.50;;;8.70;71.00;;;;;;5029108;28;20492;-85